createdAt,value
2017-12-03T00:01:31.747Z,-0.70
2017-12-03T00:04:00.806Z,-0.70
2017-12-03T00:06:29.913Z,-0.70
2017-12-03T00:08:58.820Z,-0.80
2017-12-03T00:11:27.757Z,-0.80
2017-12-03T00:13:57.438Z,-0.90
2017-12-03T00:16:27.201Z,-0.90
2017-12-03T00:18:56.089Z,-0.90
2017-12-03T00:21:25.095Z,-0.90
2017-12-03T00:23:53.965Z,-0.90
2017-12-03T00:26:22.870Z,-0.90
2017-12-03T00:28:51.765Z,-0.90
2017-12-03T00:31:22.157Z,-1.00
2017-12-03T00:33:51.968Z,-1.00
2017-12-03T00:36:25.294Z,-1.00
2017-12-03T00:38:54.215Z,-1.10
2017-12-03T00:41:25.312Z,-1.00
2017-12-03T00:43:54.234Z,-1.00
2017-12-03T00:46:23.226Z,-1.00
2017-12-03T00:48:52.192Z,-1.00
2017-12-03T00:51:21.222Z,-1.00
2017-12-03T00:53:50.104Z,-1.00
2017-12-03T00:56:23.581Z,-1.00
2017-12-03T00:58:52.970Z,-1.10
2017-12-03T01:01:22.074Z,-1.00
2017-12-03T01:03:51.060Z,-1.00
2017-12-03T01:06:20.026Z,-1.00
2017-12-03T01:08:49.841Z,-1.00
2017-12-03T01:11:19.699Z,-1.00
2017-12-03T01:13:48.591Z,-1.10
2017-12-03T01:16:19.702Z,-1.00
2017-12-03T01:18:48.654Z,-1.10
2017-12-03T01:21:17.993Z,-1.10
2017-12-03T01:23:46.873Z,-1.10
2017-12-03T01:26:16.650Z,-1.10
2017-12-03T01:28:45.698Z,-1.20
2017-12-03T01:31:14.616Z,-1.10
2017-12-03T01:33:43.510Z,-1.10
2017-12-03T01:36:12.471Z,-1.10
2017-12-03T01:38:41.391Z,-1.10
2017-12-03T01:41:11.095Z,-1.10
2017-12-03T01:43:40.301Z,-1.10
2017-12-03T01:46:09.280Z,-1.10
2017-12-03T01:48:38.214Z,-1.10
2017-12-03T01:51:07.240Z,-1.10
2017-12-03T01:53:36.129Z,-1.10
2017-12-03T01:56:05.174Z,-1.20
2017-12-03T01:58:34.096Z,-1.20
2017-12-03T02:01:05.737Z,-1.20
2017-12-03T02:04:53.763Z,-1.30
2017-12-03T02:07:22.921Z,-1.20
2017-12-03T02:09:51.901Z,-1.20
2017-12-03T02:12:21.684Z,-1.20
2017-12-03T02:14:50.583Z,-1.10
2017-12-03T02:17:22.862Z,-1.10
2017-12-03T02:19:52.635Z,-1.10
2017-12-03T02:22:21.780Z,-1.20
2017-12-03T02:24:50.689Z,-1.10
2017-12-03T02:27:19.639Z,-1.10
2017-12-03T02:29:49.368Z,-1.10
2017-12-03T02:32:21.432Z,-1.10
2017-12-03T02:34:50.507Z,-1.20
2017-12-03T02:37:20.676Z,-1.20
2017-12-03T02:39:49.532Z,-1.10
2017-12-03T02:42:18.531Z,-1.20
2017-12-03T02:44:48.259Z,-1.10
2017-12-03T02:47:17.278Z,-1.20
2017-12-03T02:49:46.308Z,-1.10
2017-12-03T02:52:15.456Z,-1.10
2017-12-03T02:54:44.302Z,-1.10
2017-12-03T02:57:14.306Z,-1.10
2017-12-03T02:59:43.258Z,-1.10
2017-12-03T03:02:12.278Z,-1.10
2017-12-03T03:04:41.264Z,-1.10
2017-12-03T03:07:11.094Z,-1.10
2017-12-03T03:09:40.029Z,-1.10
2017-12-03T03:12:08.966Z,-1.10
2017-12-03T03:14:37.841Z,-1.10
2017-12-03T03:17:07.485Z,-1.10
2017-12-03T03:19:36.487Z,-1.20
2017-12-03T03:22:06.247Z,-1.20
2017-12-03T03:24:35.232Z,-1.20
2017-12-03T03:27:04.277Z,-1.20
2017-12-03T03:30:36.972Z,-1.20
2017-12-03T03:33:06.694Z,-1.20
2017-12-03T03:35:35.797Z,-1.30
2017-12-03T03:38:04.839Z,-1.20
2017-12-03T03:40:34.034Z,-1.20
2017-12-03T03:43:02.983Z,-1.20
2017-12-03T03:45:32.001Z,-1.20
2017-12-03T03:48:00.966Z,-1.20
2017-12-03T03:50:30.259Z,-1.20
2017-12-03T03:52:59.189Z,-1.20
2017-12-03T03:55:29.032Z,-1.30
2017-12-03T03:57:58.742Z,-1.20
2017-12-03T04:00:27.835Z,-1.30
2017-12-03T04:02:56.776Z,-1.30
2017-12-03T04:05:25.813Z,-1.20
2017-12-03T04:07:55.104Z,-1.30
2017-12-03T04:10:24.486Z,-1.30
2017-12-03T04:12:53.514Z,-1.30
2017-12-03T04:15:22.514Z,-1.20
2017-12-03T04:17:55.858Z,-1.30
2017-12-03T04:20:25.241Z,-1.20
2017-12-03T04:22:54.918Z,-1.20
2017-12-03T04:25:24.775Z,-1.20
2017-12-03T04:27:53.720Z,-1.30
2017-12-03T04:30:22.981Z,-1.20
2017-12-03T04:32:52.008Z,-1.20
2017-12-03T04:35:22.447Z,-1.20
2017-12-03T04:37:51.474Z,-1.30
2017-12-03T04:40:20.438Z,-1.30
2017-12-03T04:42:50.186Z,-1.20
2017-12-03T04:45:19.988Z,-1.30
2017-12-03T04:47:49.730Z,-1.20
2017-12-03T04:50:20.058Z,-1.30
2017-12-03T04:52:49.014Z,-1.30
2017-12-03T04:55:18.027Z,-1.30
2017-12-03T04:57:47.030Z,-1.20
2017-12-03T05:00:16.573Z,-1.20
2017-12-03T05:02:46.335Z,-1.30
2017-12-03T05:05:15.342Z,-1.30
2017-12-03T05:07:44.271Z,-1.20
2017-12-03T05:10:14.534Z,-1.20
2017-12-03T05:12:43.495Z,-1.30
2017-12-03T05:15:13.587Z,-1.20
2017-12-03T05:17:42.554Z,-1.30
2017-12-03T05:20:11.820Z,-1.20
2017-12-03T05:22:41.709Z,-1.20
2017-12-03T05:25:21.702Z,-1.20
2017-12-03T05:27:50.700Z,-1.20
2017-12-03T05:30:19.748Z,-1.20
2017-12-03T05:32:49.595Z,-1.20
2017-12-03T05:35:18.603Z,-1.30
2017-12-03T05:37:47.560Z,-1.20
2017-12-03T05:40:17.446Z,-1.20
2017-12-03T05:42:47.511Z,-1.20
2017-12-03T05:45:16.564Z,-1.20
2017-12-03T05:47:45.523Z,-1.20
2017-12-03T05:50:14.482Z,-1.20
2017-12-03T05:52:43.453Z,-1.20
2017-12-03T05:55:13.405Z,-1.20
2017-12-03T05:57:42.478Z,-1.30
2017-12-03T06:00:15.651Z,-1.10
2017-12-03T06:02:45.870Z,-1.10
2017-12-03T06:05:15.602Z,-1.10
2017-12-03T06:07:45.343Z,-1.20
2017-12-03T06:10:14.560Z,-1.20
2017-12-03T06:12:43.506Z,-1.20
2017-12-03T06:15:12.895Z,-1.20
2017-12-03T06:17:41.889Z,-1.20
2017-12-03T06:20:11.788Z,-1.20
2017-12-03T06:22:41.812Z,-1.10
2017-12-03T06:25:11.918Z,-1.10
2017-12-03T06:27:40.878Z,-1.20
2017-12-03T06:30:10.143Z,-1.10
2017-12-03T06:32:39.898Z,-1.20
2017-12-03T06:35:08.958Z,-1.20
2017-12-03T06:37:37.897Z,-1.20
2017-12-03T06:40:08.952Z,-1.10
2017-12-03T06:42:38.699Z,-1.20
2017-12-03T06:45:08.074Z,-1.20
2017-12-03T06:47:37.745Z,-1.20
2017-12-03T06:50:11.922Z,-1.20
2017-12-03T06:52:40.838Z,-1.20
2017-12-03T06:55:11.128Z,-1.10
2017-12-03T06:57:40.125Z,-1.10
2017-12-03T07:00:14.722Z,-1.20
2017-12-03T07:02:44.468Z,-1.20
2017-12-03T07:05:13.968Z,-1.20
2017-12-03T07:07:42.946Z,-1.10
2017-12-03T07:10:15.956Z,-1.20
2017-12-03T07:12:44.908Z,-1.20
2017-12-03T07:15:14.909Z,-1.20
2017-12-03T07:17:43.871Z,-1.20
2017-12-03T07:20:16.734Z,-1.20
2017-12-03T07:24:05.948Z,-1.20
2017-12-03T07:26:34.902Z,-1.20
2017-12-03T07:29:04.114Z,-1.20
2017-12-03T07:31:33.974Z,-1.30
2017-12-03T07:34:04.070Z,-1.20
2017-12-03T07:36:33.172Z,-1.30
2017-12-03T07:39:02.315Z,-1.30
2017-12-03T07:41:32.273Z,-1.20
2017-12-03T07:44:01.308Z,-1.20
2017-12-03T07:46:31.183Z,-1.30
2017-12-03T07:49:00.226Z,-1.30
2017-12-03T07:51:29.341Z,-1.30
2017-12-03T07:53:58.387Z,-1.30
2017-12-03T07:56:28.429Z,-1.30
2017-12-03T07:58:57.386Z,-1.30
2017-12-03T08:01:26.560Z,-1.20
2017-12-03T08:03:55.539Z,-1.30
2017-12-03T08:06:24.597Z,-1.30
2017-12-03T08:08:54.464Z,-1.30
2017-12-03T08:11:24.395Z,-1.30
2017-12-03T08:13:53.444Z,-1.30
2017-12-03T08:16:22.622Z,-1.20
2017-12-03T08:18:52.805Z,-1.30
2017-12-03T08:21:22.806Z,-1.30
2017-12-03T08:23:51.934Z,-1.30
2017-12-03T08:26:24.219Z,-1.30
2017-12-03T08:28:54.103Z,-1.20
2017-12-03T08:31:29.749Z,-1.30
2017-12-03T08:33:59.751Z,-1.20
2017-12-03T08:36:28.830Z,-1.20
2017-12-03T08:38:58.100Z,-1.20
2017-12-03T08:41:27.373Z,-1.20
2017-12-03T08:43:57.152Z,-1.30
2017-12-03T08:46:26.359Z,-1.30
2017-12-03T08:48:55.433Z,-1.20
2017-12-03T08:51:25.742Z,-1.20
2017-12-03T08:53:54.722Z,-1.20
2017-12-03T08:56:25.685Z,-1.20
2017-12-03T08:58:54.694Z,-1.20
2017-12-03T09:01:32.769Z,-1.20
2017-12-03T09:04:04.133Z,-1.20
2017-12-03T09:06:33.962Z,-1.10
2017-12-03T09:09:05.852Z,-1.20
2017-12-03T09:11:39.832Z,-1.20
2017-12-03T09:14:08.951Z,-1.10
2017-12-03T09:16:38.325Z,-1.20
2017-12-03T09:19:08.791Z,-1.20
2017-12-03T09:21:49.686Z,-1.20
2017-12-03T09:24:23.028Z,-1.30
2017-12-03T09:26:52.186Z,-1.20
2017-12-03T09:29:21.352Z,-1.20
2017-12-03T09:31:51.905Z,-1.30
2017-12-03T09:34:21.268Z,-1.30
2017-12-03T09:36:51.120Z,-1.30
2017-12-03T09:39:20.380Z,-1.30
2017-12-03T09:41:49.409Z,-1.30
2017-12-03T09:44:19.347Z,-1.20
2017-12-03T09:46:48.444Z,-1.20
2017-12-03T09:49:17.529Z,-1.20
2017-12-03T09:51:46.557Z,-1.30
2017-12-03T09:54:16.156Z,-1.20
2017-12-03T09:56:45.388Z,-1.20
2017-12-03T09:59:14.555Z,-1.20
2017-12-03T10:01:43.773Z,-1.20
2017-12-03T10:04:13.190Z,-1.20
2017-12-03T10:06:43.170Z,-1.20
2017-12-03T10:09:13.229Z,-1.20
2017-12-03T10:11:43.090Z,-1.20
2017-12-03T10:14:13.598Z,-1.30
2017-12-03T10:16:42.761Z,-1.20
2017-12-03T10:19:12.726Z,-1.20
2017-12-03T10:21:41.865Z,-1.30
2017-12-03T10:24:11.046Z,-1.20
2017-12-03T10:26:41.154Z,-1.20
2017-12-03T10:29:11.627Z,-1.30
2017-12-03T10:31:41.564Z,-1.20
2017-12-03T10:34:12.591Z,-1.30
2017-12-03T10:36:41.633Z,-1.20
2017-12-03T10:39:10.682Z,-1.20
2017-12-03T10:41:40.444Z,-1.20
2017-12-03T10:44:09.421Z,-1.20
2017-12-03T10:46:38.590Z,-1.20
2017-12-03T10:49:07.585Z,-1.20
2017-12-03T10:51:36.550Z,-1.20
2017-12-03T10:54:06.343Z,-1.10
2017-12-03T10:56:35.453Z,-1.20
2017-12-03T10:59:05.691Z,-1.20
2017-12-03T11:01:35.484Z,-1.20
2017-12-03T11:04:04.872Z,-1.30
2017-12-03T11:06:34.167Z,-1.20
2017-12-03T11:09:03.501Z,-1.10
2017-12-03T11:11:34.402Z,-1.20
2017-12-03T11:14:03.489Z,-1.20
2017-12-03T11:16:32.533Z,-1.20
2017-12-03T11:19:01.579Z,-1.20
2017-12-03T11:21:30.664Z,-1.20
2017-12-03T11:23:59.578Z,-1.10
2017-12-03T11:26:28.748Z,-1.10
2017-12-03T11:28:57.744Z,-1.10
2017-12-03T11:31:28.956Z,-1.10
2017-12-03T11:33:58.060Z,-1.10
2017-12-03T11:36:27.075Z,-1.10
2017-12-03T11:38:56.016Z,-1.10
2017-12-03T11:41:26.499Z,-1.10
2017-12-03T11:43:55.423Z,-1.20
2017-12-03T11:46:25.520Z,-1.10
2017-12-03T11:48:54.553Z,-1.20
2017-12-03T11:51:25.489Z,-1.10
2017-12-03T11:53:54.454Z,-1.20
2017-12-03T11:56:23.721Z,-1.10
2017-12-03T11:58:52.678Z,-1.10
2017-12-03T12:01:21.838Z,-1.10
2017-12-03T12:03:50.893Z,-1.10
2017-12-03T12:06:20.196Z,-1.10
2017-12-03T12:08:49.157Z,-1.10
2017-12-03T12:11:28.127Z,-1.10
2017-12-03T12:13:57.115Z,-1.10
2017-12-03T12:16:26.606Z,-1.10
2017-12-03T12:19:09.749Z,-1.10
2017-12-03T12:21:38.971Z,-1.00
2017-12-03T12:24:09.360Z,-1.10
2017-12-03T12:26:38.407Z,-1.10
2017-12-03T12:29:07.842Z,-1.10
2017-12-03T12:31:44.029Z,-1.10
2017-12-03T12:34:13.136Z,-1.00
2017-12-03T12:36:42.869Z,-1.10
2017-12-03T12:39:12.643Z,-1.10
2017-12-03T12:41:43.466Z,-1.10
2017-12-03T12:44:13.438Z,-1.00
2017-12-03T12:46:43.239Z,-1.00
2017-12-03T12:49:13.262Z,-1.10
2017-12-03T12:51:46.592Z,-1.00
2017-12-03T12:54:17.068Z,-1.00
2017-12-03T12:56:46.406Z,-1.00
2017-12-03T12:59:16.306Z,-1.00
2017-12-03T13:01:48.127Z,-1.00
2017-12-03T13:04:17.352Z,-1.10
2017-12-03T13:06:47.316Z,-1.00
2017-12-03T13:09:17.702Z,-1.10
2017-12-03T13:11:52.503Z,-1.00
2017-12-03T13:14:22.392Z,-1.00
2017-12-03T13:16:51.637Z,-1.00
2017-12-03T13:19:20.737Z,-0.90
2017-12-03T13:21:50.954Z,-0.90
2017-12-03T13:24:20.060Z,-1.00
2017-12-03T13:26:51.121Z,-1.00
2017-12-03T13:29:21.435Z,-1.00
2017-12-03T13:31:52.479Z,-1.00
2017-12-03T13:34:21.561Z,-1.00
2017-12-03T13:36:51.430Z,-0.90
2017-12-03T13:39:20.541Z,-1.00
2017-12-03T13:41:50.785Z,-0.90
2017-12-03T13:44:22.161Z,-0.90
2017-12-03T13:46:52.331Z,-0.90
2017-12-03T13:49:21.558Z,-0.90
2017-12-03T13:51:51.620Z,-0.90
2017-12-03T13:55:41.641Z,-0.90
2017-12-03T13:58:12.492Z,-0.90
2017-12-03T14:00:44.762Z,-1.00
2017-12-03T14:03:13.852Z,-0.90
2017-12-03T14:05:43.189Z,-1.00
2017-12-03T14:08:12.283Z,-0.90
2017-12-03T14:10:42.303Z,-1.00
2017-12-03T14:13:12.164Z,-1.00
2017-12-03T14:15:42.049Z,-1.00
2017-12-03T14:18:13.402Z,-1.10
2017-12-03T14:20:42.508Z,-1.00
2017-12-03T14:23:12.500Z,-1.00
2017-12-03T14:25:41.619Z,-1.00
2017-12-03T14:28:13.476Z,-1.00
2017-12-03T14:30:42.690Z,-1.00
2017-12-03T14:33:11.729Z,-1.00
2017-12-03T14:35:41.586Z,-1.00
2017-12-03T14:38:11.304Z,-1.00
2017-12-03T14:40:40.704Z,-1.00
2017-12-03T14:43:09.762Z,-1.00
2017-12-03T14:45:39.711Z,-1.00
2017-12-03T14:48:08.782Z,-1.00
2017-12-03T14:50:38.044Z,-1.00
2017-12-03T14:53:08.119Z,-1.00
2017-12-03T14:55:37.198Z,-1.00
2017-12-03T14:58:06.264Z,-1.00
2017-12-03T15:00:38.789Z,-0.90
2017-12-03T15:03:07.907Z,-1.00
2017-12-03T15:05:39.819Z,-0.90
2017-12-03T15:08:08.971Z,-1.00
2017-12-03T15:10:38.979Z,-0.90
2017-12-03T15:13:09.108Z,-1.00
2017-12-03T15:15:38.277Z,-0.90
2017-12-03T15:18:07.563Z,-0.90
2017-12-03T15:20:37.113Z,-0.90
2017-12-03T15:23:06.403Z,-0.80
2017-12-03T15:25:37.081Z,-0.90
2017-12-03T15:28:08.694Z,-0.90
2017-12-03T15:30:38.331Z,-0.80
2017-12-03T15:33:09.190Z,-0.80
2017-12-03T15:35:39.313Z,-0.80
2017-12-03T15:38:10.784Z,-0.80
2017-12-03T15:40:40.829Z,-0.70
2017-12-03T15:43:11.846Z,-0.80
2017-12-03T15:45:41.307Z,-0.70
2017-12-03T15:48:11.946Z,-0.70
2017-12-03T15:50:42.932Z,-0.70
2017-12-03T15:53:12.878Z,-0.70
2017-12-03T15:55:43.231Z,-0.70
2017-12-03T15:58:13.163Z,-0.70
2017-12-03T16:00:43.585Z,-0.70
2017-12-03T16:03:14.644Z,-0.70
2017-12-03T16:05:45.722Z,-0.70
2017-12-03T16:08:15.481Z,-0.70
2017-12-03T16:10:46.888Z,-0.70
2017-12-03T16:13:17.083Z,-0.70
2017-12-03T16:15:46.368Z,-0.80
2017-12-03T16:18:15.502Z,-0.70
2017-12-03T16:20:45.518Z,-0.70
2017-12-03T16:23:14.862Z,-0.80
2017-12-03T16:25:44.177Z,-0.70
2017-12-03T16:28:13.821Z,-0.70
2017-12-03T16:30:43.800Z,-0.60
2017-12-03T16:33:15.497Z,-0.60
2017-12-03T16:35:45.670Z,-0.60
2017-12-03T16:38:16.292Z,-0.60
2017-12-03T16:40:49.503Z,-0.60
2017-12-03T16:43:18.888Z,-0.60
2017-12-03T16:45:48.054Z,-0.60
2017-12-03T16:48:18.826Z,-0.60
2017-12-03T16:50:54.959Z,-0.60
2017-12-03T16:53:25.314Z,-0.50
2017-12-03T16:55:54.490Z,-0.50
2017-12-03T16:58:23.658Z,-0.50
2017-12-03T17:00:54.260Z,-0.50
2017-12-03T17:03:23.559Z,-0.50
2017-12-03T17:05:54.349Z,-0.50
2017-12-03T17:08:23.403Z,-0.60
2017-12-03T17:10:53.424Z,-0.50
2017-12-03T17:13:23.315Z,-0.50
2017-12-03T17:15:52.645Z,-0.50
2017-12-03T17:18:22.699Z,-0.40
2017-12-03T17:20:52.022Z,-0.40
2017-12-03T17:23:24.281Z,-0.40
2017-12-03T17:25:55.412Z,-0.40
2017-12-03T17:28:24.803Z,-0.40
2017-12-03T17:30:54.774Z,-0.40
2017-12-03T17:33:27.849Z,-0.40
2017-12-03T17:35:57.701Z,-0.30
2017-12-03T17:38:27.778Z,-0.30
2017-12-03T17:40:57.902Z,-0.40
2017-12-03T17:43:28.252Z,-0.20
2017-12-03T17:46:00.440Z,-0.30
2017-12-03T17:48:30.803Z,-0.20
2017-12-03T17:51:00.742Z,-0.20
2017-12-03T17:53:31.182Z,-0.30
2017-12-03T17:56:01.121Z,-0.20
2017-12-03T17:58:30.285Z,-0.20
2017-12-03T18:01:00.303Z,-0.20
2017-12-03T18:03:30.748Z,-0.20
2017-12-03T18:06:00.967Z,-0.20
2017-12-03T18:08:31.043Z,-0.20
2017-12-03T18:11:00.292Z,-0.30
2017-12-03T18:13:30.361Z,-0.20
2017-12-03T18:16:00.740Z,-0.30
2017-12-03T18:18:31.199Z,-0.30
2017-12-03T18:21:02.366Z,-0.30
2017-12-03T18:23:31.662Z,-0.20
2017-12-03T18:26:00.872Z,-0.20
2017-12-03T18:28:30.373Z,-0.20
2017-12-03T18:31:02.069Z,-0.20
2017-12-03T18:33:31.311Z,-0.20
2017-12-03T18:36:00.628Z,-0.20
2017-12-03T18:38:29.910Z,-0.20
2017-12-03T18:41:29.942Z,-0.10
2017-12-03T18:43:59.032Z,-0.10
2017-12-03T18:46:28.220Z,-0.10
2017-12-03T18:48:57.295Z,-0.10
2017-12-03T18:51:26.617Z,-0.10
2017-12-03T18:53:55.785Z,-0.10
2017-12-03T18:56:25.684Z,-0.10
2017-12-03T18:58:55.141Z,-0.10
2017-12-03T19:01:24.468Z,-0.10
2017-12-03T19:03:53.497Z,-0.10
2017-12-03T19:06:22.842Z,-0.10
2017-12-03T19:08:52.807Z,-0.10
2017-12-03T19:11:22.104Z,-0.10
2017-12-03T19:13:51.292Z,0.00
2017-12-03T19:16:21.426Z,0.00
2017-12-03T19:18:50.586Z,0.00
2017-12-03T19:21:23.230Z,0.00
2017-12-03T19:23:52.262Z,-0.10
2017-12-03T19:26:23.210Z,0.00
2017-12-03T19:28:53.253Z,-0.10
2017-12-03T19:31:23.810Z,-0.10
2017-12-03T19:33:54.062Z,0.00
2017-12-03T19:36:24.366Z,0.00
2017-12-03T19:38:53.651Z,-0.10
2017-12-03T19:41:23.908Z,0.00
2017-12-03T19:43:53.041Z,0.00
2017-12-03T19:46:22.904Z,0.00
2017-12-03T19:48:51.930Z,0.00
2017-12-03T19:51:22.699Z,0.10
2017-12-03T19:53:52.097Z,0.00
2017-12-03T19:56:27.503Z,0.10
2017-12-03T19:58:56.596Z,0.10
2017-12-03T20:01:30.230Z,0.10
2017-12-03T20:04:00.111Z,0.20
2017-12-03T20:06:30.323Z,0.20
2017-12-03T20:08:59.377Z,0.10
2017-12-03T20:11:29.387Z,0.20
2017-12-03T20:13:58.724Z,0.20
2017-12-03T20:16:28.684Z,0.20
2017-12-03T20:18:57.883Z,0.30
2017-12-03T20:21:27.157Z,0.30
2017-12-03T20:23:57.048Z,0.40
2017-12-03T20:26:27.339Z,0.40
2017-12-03T20:28:57.110Z,0.40
2017-12-03T20:34:10.880Z,0.40
2017-12-03T20:36:41.085Z,0.50
2017-12-03T20:39:13.356Z,0.50
2017-12-03T20:41:44.696Z,0.60
2017-12-03T20:44:14.716Z,0.60
2017-12-03T20:46:43.969Z,0.50
2017-12-03T20:49:13.101Z,0.60
2017-12-03T20:51:42.357Z,0.60
2017-12-03T20:54:12.461Z,0.60
2017-12-03T20:56:42.108Z,0.50
2017-12-03T20:59:11.275Z,0.50
2017-12-03T21:01:41.529Z,0.60
2017-12-03T21:04:11.987Z,0.50
2017-12-03T21:06:41.918Z,0.50
2017-12-03T21:09:11.925Z,0.50
2017-12-03T21:11:41.851Z,0.50
2017-12-03T21:14:11.243Z,0.50
2017-12-03T21:16:41.141Z,0.50
2017-12-03T21:19:10.410Z,0.40
2017-12-03T21:21:40.608Z,0.50
2017-12-03T21:24:10.763Z,0.50
2017-12-03T21:26:39.839Z,0.50
2017-12-03T21:29:09.088Z,0.50
2017-12-03T21:31:40.071Z,0.50
2017-12-03T21:34:11.010Z,0.50
2017-12-03T21:36:40.112Z,0.50
2017-12-03T21:39:09.929Z,0.60
2017-12-03T21:41:40.146Z,0.60
2017-12-03T21:44:09.270Z,0.60
2017-12-03T21:46:38.275Z,0.60
2017-12-03T21:49:08.313Z,0.60
2017-12-03T21:51:44.634Z,0.70
2017-12-03T21:54:15.945Z,0.70
2017-12-03T21:56:44.915Z,0.70
2017-12-03T21:59:14.749Z,0.70
2017-12-03T22:01:44.270Z,0.70
2017-12-03T22:04:13.266Z,0.80
2017-12-03T22:06:42.218Z,0.80
2017-12-03T22:09:12.068Z,0.90
2017-12-03T22:11:41.098Z,0.80
2017-12-03T22:14:10.154Z,0.90
2017-12-03T22:16:40.175Z,0.90
2017-12-03T22:19:09.120Z,0.90
2017-12-03T22:21:39.033Z,0.90
2017-12-03T22:24:09.054Z,0.90
2017-12-03T22:26:38.848Z,0.90
2017-12-03T22:29:09.981Z,1.00
2017-12-03T22:31:39.691Z,1.00
2017-12-03T22:34:10.036Z,0.90
2017-12-03T22:36:39.818Z,1.00
2017-12-03T22:39:16.509Z,1.00
2017-12-03T22:41:46.453Z,0.90
2017-12-03T22:44:15.511Z,1.00
2017-12-03T22:46:44.425Z,1.00
2017-12-03T22:49:14.135Z,1.00
2017-12-03T22:51:44.226Z,1.00
2017-12-03T22:54:14.142Z,1.00
2017-12-03T22:56:43.398Z,0.90
2017-12-03T22:59:14.122Z,1.00
2017-12-03T23:01:44.046Z,1.00
2017-12-03T23:05:15.619Z,1.00
2017-12-03T23:07:45.097Z,1.00
2017-12-03T23:10:15.167Z,1.00
2017-12-03T23:12:44.069Z,1.00
2017-12-03T23:15:14.870Z,1.10
2017-12-03T23:17:43.997Z,1.10
2017-12-03T23:20:14.138Z,1.10
2017-12-03T23:22:43.910Z,1.10
2017-12-03T23:25:14.914Z,1.00
2017-12-03T23:27:46.934Z,1.10
2017-12-03T23:30:17.206Z,1.10
2017-12-03T23:32:46.134Z,1.10
2017-12-03T23:35:16.735Z,1.10
2017-12-03T23:37:45.763Z,1.10
2017-12-03T23:40:15.706Z,1.10
2017-12-03T23:42:45.475Z,1.10
2017-12-03T23:45:14.880Z,1.10
2017-12-03T23:47:43.830Z,1.10
2017-12-03T23:50:16.702Z,1.10
2017-12-03T23:52:46.469Z,1.10
2017-12-03T23:55:15.451Z,1.10
2017-12-03T23:57:44.394Z,1.20
